createdAt,value
2023-07-18T00:02:26.829Z,5.15
2023-07-18T00:04:55.595Z,4.30
2023-07-18T00:07:22.787Z,4.05
2023-07-18T00:09:59.021Z,4.00
2023-07-18T00:12:26.481Z,4.53
2023-07-18T00:15:00.688Z,4.35
2023-07-18T00:17:27.915Z,4.03
2023-07-18T00:19:55.103Z,4.10
2023-07-18T00:22:28.686Z,4.53
2023-07-18T00:24:56.092Z,4.50
2023-07-18T00:27:29.698Z,4.60
2023-07-18T00:29:56.925Z,3.90
2023-07-18T00:32:43.874Z,4.47
2023-07-18T00:35:12.922Z,4.53
2023-07-18T00:37:40.453Z,5.00
2023-07-18T00:40:18.730Z,4.38
2023-07-18T00:42:53.585Z,4.55
2023-07-18T00:45:27.670Z,4.78
2023-07-18T00:47:55.092Z,4.43
2023-07-18T00:50:22.430Z,4.55
2023-07-18T00:52:57.653Z,4.72
2023-07-18T00:55:25.107Z,4.25
2023-07-18T00:57:58.775Z,4.90
2023-07-18T01:00:26.098Z,4.20
2023-07-18T01:02:54.616Z,4.90
2023-07-18T01:05:28.799Z,4.20
2023-07-18T01:07:56.163Z,4.28
2023-07-18T01:10:27.061Z,4.22
2023-07-18T01:13:02.719Z,4.40
2023-07-18T01:15:40.603Z,4.45
2023-07-18T01:18:16.646Z,4.53
2023-07-18T01:20:46.956Z,5.57
2023-07-18T01:23:21.668Z,4.53
2023-07-18T01:25:49.451Z,5.13
2023-07-18T01:28:16.572Z,3.60
2023-07-18T01:30:50.709Z,5.38
2023-07-18T01:33:24.800Z,4.97
2023-07-18T01:35:59.789Z,4.47
2023-07-18T01:38:33.735Z,4.32
2023-07-18T01:41:07.883Z,3.95
2023-07-18T01:43:36.739Z,4.88
2023-07-18T01:46:03.870Z,4.68
2023-07-18T01:48:37.662Z,4.00
2023-07-18T01:51:05.005Z,4.28
2023-07-18T01:53:38.780Z,5.07
2023-07-18T01:56:07.130Z,4.40
2023-07-18T01:58:34.416Z,4.47
2023-07-18T02:01:10.757Z,3.88
2023-07-18T02:03:38.364Z,4.05
2023-07-18T02:08:38.869Z,4.10
2023-07-18T02:11:06.095Z,4.22
2023-07-18T02:13:39.803Z,4.22
2023-07-18T02:16:06.951Z,3.95
2023-07-18T02:18:34.149Z,4.72
2023-07-18T02:21:07.662Z,4.32
2023-07-18T02:23:34.797Z,4.65
2023-07-18T02:26:08.721Z,4.22
2023-07-18T02:28:36.001Z,4.57
2023-07-18T02:31:03.631Z,5.10
2023-07-18T02:36:07.527Z,5.00
2023-07-18T02:39:01.961Z,3.83
2023-07-18T02:41:49.309Z,4.00
2023-07-18T02:44:42.688Z,4.03
2023-07-18T02:47:29.861Z,3.63
2023-07-18T02:50:23.722Z,4.35
2023-07-18T02:53:10.875Z,3.25
2023-07-18T02:56:04.830Z,4.63
2023-07-18T02:58:52.118Z,3.53
2023-07-18T03:01:48.717Z,4.97
2023-07-18T03:04:35.909Z,4.05
2023-07-18T03:07:30.084Z,3.80
2023-07-18T03:10:17.280Z,3.95
2023-07-18T03:13:10.935Z,3.40
2023-07-18T03:15:58.183Z,3.90
2023-07-18T03:18:51.707Z,4.05
2023-07-18T03:21:38.950Z,3.78
2023-07-18T03:24:33.027Z,4.22
2023-07-18T03:27:20.273Z,3.67
2023-07-18T03:30:13.714Z,3.83
2023-07-18T03:33:07.745Z,3.17
2023-07-18T03:36:08.847Z,3.85
2023-07-18T03:38:56.131Z,3.05
2023-07-18T03:41:49.743Z,3.10
2023-07-18T03:44:43.626Z,3.88
2023-07-18T03:47:37.851Z,3.45
2023-07-18T03:50:25.349Z,3.30
2023-07-18T03:53:18.862Z,3.75
2023-07-18T03:56:06.037Z,3.08
2023-07-18T03:58:59.738Z,3.50
2023-07-18T04:01:47.009Z,3.40
2023-07-18T04:04:40.956Z,3.63
2023-07-18T04:07:28.143Z,4.25
2023-07-18T04:10:21.970Z,3.50
2023-07-18T04:13:09.145Z,3.75
2023-07-18T04:16:02.866Z,1.92
2023-07-18T04:18:50.091Z,2.00
2023-07-18T04:21:43.874Z,1.90
2023-07-18T04:24:31.028Z,1.75
2023-07-18T04:27:24.708Z,1.85
2023-07-18T04:30:18.645Z,3.08
2023-07-18T04:33:12.694Z,2.15
2023-07-18T04:36:06.707Z,2.85
2023-07-18T04:38:53.889Z,3.28
2023-07-18T04:41:55.228Z,1.70
2023-07-18T04:44:43.013Z,1.90
2023-07-18T04:47:36.912Z,1.98
2023-07-18T04:50:24.346Z,2.30
2023-07-18T04:53:17.698Z,3.80
2023-07-18T04:56:05.887Z,2.15
2023-07-18T04:58:59.815Z,2.80
2023-07-18T05:01:47.038Z,1.92
2023-07-18T05:04:40.701Z,1.98
2023-07-18T05:07:27.945Z,2.03
2023-07-18T05:10:21.701Z,2.47
2023-07-18T05:13:08.959Z,1.70
2023-07-18T05:16:02.764Z,2.70
2023-07-18T05:18:50.092Z,2.33
2023-07-18T05:21:43.656Z,2.65
2023-07-18T05:24:37.762Z,1.75
2023-07-18T05:27:31.698Z,1.83
2023-07-18T05:30:25.791Z,1.83
2023-07-18T05:33:19.682Z,1.30
2023-07-18T05:36:19.773Z,1.50
2023-07-18T05:39:06.931Z,1.52
2023-07-18T05:42:01.071Z,1.77
2023-07-18T05:44:48.354Z,1.38
2023-07-18T05:47:41.847Z,1.52
2023-07-18T05:50:29.295Z,1.50
2023-07-18T05:53:22.782Z,1.98
2023-07-18T05:56:16.772Z,1.90
2023-07-18T05:59:04.062Z,1.75
2023-07-18T06:01:57.688Z,1.90
2023-07-18T06:04:51.940Z,1.58
2023-07-18T06:07:39.131Z,1.63
2023-07-18T06:10:32.791Z,1.75
2023-07-18T06:13:20.007Z,1.52
2023-07-18T06:16:16.796Z,1.60
2023-07-18T06:19:04.011Z,1.30
2023-07-18T06:21:58.114Z,1.92
2023-07-18T06:24:45.377Z,1.95
2023-07-18T06:27:38.868Z,2.65
2023-07-18T06:30:32.683Z,2.20
2023-07-18T06:33:27.145Z,2.08
2023-07-18T06:36:26.903Z,2.42
2023-07-18T06:42:07.687Z,2.47
2023-07-18T06:44:54.960Z,2.50
2023-07-18T06:47:48.750Z,2.45
2023-07-18T06:50:36.044Z,2.20
2023-07-18T06:53:35.768Z,1.90
2023-07-18T06:56:22.978Z,3.25
2023-07-18T06:59:16.716Z,2.40
2023-07-18T07:02:10.765Z,3.00
2023-07-18T07:05:04.869Z,2.08
2023-07-18T07:07:52.115Z,2.67
2023-07-18T07:10:45.869Z,2.63
2023-07-18T07:13:33.387Z,2.33
2023-07-18T07:16:26.779Z,2.53
2023-07-18T07:19:13.928Z,2.38
2023-07-18T07:22:07.928Z,2.22
2023-07-18T07:24:55.392Z,2.22
2023-07-18T07:27:48.817Z,2.50
2023-07-18T07:30:36.784Z,1.98
2023-07-18T07:33:37.840Z,1.95
2023-07-18T07:36:25.138Z,2.17
2023-07-18T07:39:18.735Z,2.90
2023-07-18T07:42:05.916Z,2.38
2023-07-18T07:44:59.839Z,2.30
2023-07-18T07:47:47.013Z,2.10
2023-07-18T07:50:40.902Z,2.35
2023-07-18T07:53:28.172Z,2.20
2023-07-18T07:56:21.835Z,2.20
2023-07-18T07:59:11.619Z,2.05
2023-07-18T08:02:05.772Z,2.00
2023-07-18T08:04:53.099Z,2.28
2023-07-18T08:07:46.760Z,2.03
2023-07-18T08:10:34.042Z,2.53
2023-07-18T08:13:27.914Z,2.35
2023-07-18T08:16:15.130Z,1.60
2023-07-18T08:19:08.720Z,2.10
2023-07-18T08:21:56.046Z,2.47
2023-07-18T08:24:49.805Z,1.60
2023-07-18T08:27:36.963Z,1.52
2023-07-18T08:30:30.902Z,1.90
2023-07-18T08:33:37.921Z,1.50
2023-07-18T08:36:31.746Z,2.20
2023-07-18T08:39:18.945Z,1.98
2023-07-18T08:42:13.860Z,2.13
2023-07-18T08:45:01.735Z,1.92
2023-07-18T08:47:55.817Z,2.27
2023-07-18T08:50:43.793Z,2.00
2023-07-18T08:53:44.809Z,1.55
2023-07-18T08:56:32.009Z,1.83
2023-07-18T08:59:25.795Z,2.38
2023-07-18T09:02:13.777Z,2.13
2023-07-18T09:05:07.790Z,1.73
2023-07-18T09:07:58.357Z,2.20
2023-07-18T09:10:51.746Z,2.08
2023-07-18T09:13:38.911Z,1.90
2023-07-18T09:16:42.983Z,1.88
2023-07-18T09:19:30.302Z,2.75
2023-07-18T09:22:27.831Z,1.98
2023-07-18T09:25:23.173Z,1.92
2023-07-18T09:28:16.475Z,2.42
2023-07-18T09:31:09.879Z,2.50
2023-07-18T09:34:09.772Z,2.33
2023-07-18T09:36:57.233Z,1.88
2023-07-18T09:39:51.840Z,2.13
2023-07-18T09:42:45.270Z,1.95
2023-07-18T09:45:39.805Z,2.10
2023-07-18T09:48:27.463Z,2.90
2023-07-18T09:51:24.902Z,1.35
2023-07-18T09:54:12.955Z,2.03
2023-07-18T09:57:06.901Z,1.73
2023-07-18T09:59:56.755Z,1.90
2023-07-18T10:02:50.897Z,1.88
2023-07-18T10:05:38.616Z,1.90
2023-07-18T10:08:34.819Z,1.67
2023-07-18T10:11:22.816Z,1.88
2023-07-18T10:14:22.786Z,1.70
2023-07-18T10:17:15.118Z,1.77
2023-07-18T10:20:17.820Z,2.30
2023-07-18T10:23:12.055Z,1.80
2023-07-18T10:26:07.470Z,1.80
2023-07-18T10:29:06.394Z,2.08
2023-07-18T10:32:07.052Z,1.95
2023-07-18T10:35:05.006Z,2.20
2023-07-18T10:37:58.780Z,2.25
2023-07-18T10:40:53.202Z,1.63
2023-07-18T10:43:46.784Z,2.60
2023-07-18T10:46:33.967Z,2.30
2023-07-18T10:49:27.800Z,1.98
2023-07-18T10:52:15.865Z,2.00
2023-07-18T10:55:12.931Z,2.72
2023-07-18T10:58:00.204Z,1.88
2023-07-18T11:00:53.889Z,2.58
2023-07-18T11:03:41.187Z,2.53
2023-07-18T11:06:34.834Z,2.30
2023-07-18T11:09:22.645Z,2.25
2023-07-18T11:12:16.855Z,2.37
2023-07-18T11:15:04.050Z,2.40
2023-07-18T11:17:58.927Z,2.17
2023-07-18T11:20:46.281Z,2.08
2023-07-18T11:23:39.963Z,1.80
2023-07-18T11:26:33.215Z,2.67
2023-07-18T11:29:27.893Z,1.75
2023-07-18T11:32:15.169Z,1.75
2023-07-18T11:35:23.806Z,2.28
2023-07-18T11:38:14.862Z,2.17
2023-07-18T11:41:08.965Z,2.47
2023-07-18T11:43:56.224Z,1.70
2023-07-18T11:47:01.841Z,1.85
2023-07-18T11:50:02.344Z,1.75
2023-07-18T11:52:55.824Z,1.75
2023-07-18T11:55:43.558Z,1.48
2023-07-18T11:58:36.846Z,1.52
2023-07-18T12:01:24.022Z,10.93
2023-07-18T12:04:19.108Z,1.77
2023-07-18T12:07:06.381Z,1.65
2023-07-18T12:09:59.827Z,1.60
2023-07-18T12:12:47.018Z,1.75
2023-07-18T12:15:40.846Z,1.80
2023-07-18T12:18:28.016Z,1.65
2023-07-18T12:21:22.201Z,2.35
2023-07-18T12:24:09.577Z,1.83
2023-07-18T12:27:02.858Z,1.50
2023-07-18T12:29:50.186Z,1.65
2023-07-18T12:32:43.937Z,1.35
2023-07-18T12:35:45.140Z,1.70
2023-07-18T12:38:32.573Z,1.80
2023-07-18T12:41:26.006Z,2.05
2023-07-18T12:44:20.457Z,1.48
2023-07-18T12:47:09.109Z,1.73
2023-07-18T12:50:02.877Z,2.20
2023-07-18T12:52:50.148Z,2.20
2023-07-18T12:55:43.870Z,1.95
2023-07-18T12:58:31.119Z,1.77
2023-07-18T13:01:24.896Z,1.80
2023-07-18T13:04:12.403Z,1.80
2023-07-18T13:07:06.007Z,1.60
2023-07-18T13:09:53.270Z,1.55
2023-07-18T13:12:46.997Z,1.50
2023-07-18T13:15:34.202Z,1.90
2023-07-18T13:18:27.845Z,1.88
2023-07-18T13:21:21.922Z,1.63
2023-07-18T13:24:09.246Z,1.80
2023-07-18T13:27:05.091Z,1.55
2023-07-18T13:29:52.294Z,1.70
2023-07-18T13:32:46.031Z,1.60
2023-07-18T13:35:45.894Z,2.00
2023-07-18T13:38:40.045Z,2.33
2023-07-18T13:41:30.154Z,2.22
2023-07-18T13:44:23.976Z,1.60
2023-07-18T13:47:17.888Z,1.90
2023-07-18T13:53:02.147Z,1.63
2023-07-18T13:55:55.953Z,2.13
2023-07-18T13:58:43.117Z,2.10
2023-07-18T14:01:37.068Z,1.98
2023-07-18T14:04:24.410Z,2.13
2023-07-18T14:07:18.068Z,2.15
2023-07-18T14:10:05.291Z,2.13
2023-07-18T14:12:59.097Z,2.00
2023-07-18T14:15:46.255Z,2.33
2023-07-18T14:18:40.072Z,2.05
2023-07-18T14:21:27.274Z,2.40
2023-07-18T14:24:21.090Z,2.42
2023-07-18T14:27:14.946Z,2.22
2023-07-18T14:30:02.135Z,1.88
2023-07-18T14:32:55.928Z,2.10
2023-07-18T14:35:49.835Z,1.58
2023-07-18T14:38:45.505Z,1.75
2023-07-18T14:41:34.106Z,2.17
2023-07-18T14:44:27.902Z,1.88
2023-07-18T14:47:15.363Z,1.70
2023-07-18T14:50:09.058Z,1.83
2023-07-18T14:52:56.272Z,1.33
2023-07-18T14:55:49.920Z,2.03
2023-07-18T14:58:37.390Z,2.17
2023-07-18T15:01:31.113Z,2.03
2023-07-18T15:04:18.350Z,2.30
2023-07-18T15:07:12.044Z,1.73
2023-07-18T15:09:59.254Z,2.33
2023-07-18T15:12:52.956Z,1.90
2023-07-18T15:15:40.203Z,2.50
2023-07-18T15:18:34.033Z,2.08
2023-07-18T15:21:21.278Z,2.22
2023-07-18T15:24:15.890Z,2.40
2023-07-18T15:27:03.362Z,2.20
2023-07-18T15:29:56.995Z,2.53
2023-07-18T15:32:46.864Z,2.55
2023-07-18T15:35:48.067Z,3.05
2023-07-18T15:38:35.256Z,2.75
2023-07-18T15:41:29.051Z,3.13
2023-07-18T15:44:16.373Z,2.72
2023-07-18T15:47:10.259Z,2.70
2023-07-18T15:50:25.010Z,2.60
2023-07-18T15:53:19.169Z,3.15
2023-07-18T15:56:06.389Z,2.50
2023-07-18T15:58:59.966Z,2.83
2023-07-18T16:01:47.279Z,2.95
2023-07-18T16:04:42.037Z,2.33
2023-07-18T16:07:29.307Z,2.55
2023-07-18T16:10:22.972Z,2.67
2023-07-18T16:13:10.207Z,2.65
2023-07-18T16:16:04.032Z,2.92
2023-07-18T16:18:51.261Z,2.65
2023-07-18T16:21:45.086Z,2.38
2023-07-18T16:24:32.492Z,3.00
2023-07-18T16:27:25.941Z,2.88
2023-07-18T16:30:13.209Z,3.10
2023-07-18T16:33:07.056Z,2.97
2023-07-18T16:36:00.897Z,2.63
2023-07-18T16:38:55.106Z,2.70
2023-07-18T16:41:42.310Z,2.88
2023-07-18T16:44:35.951Z,2.78
2023-07-18T16:47:30.446Z,2.58
2023-07-18T16:50:24.104Z,2.67
2023-07-18T16:53:11.314Z,2.90
2023-07-18T16:56:04.978Z,3.17
2023-07-18T16:58:52.452Z,2.95
2023-07-18T17:01:48.999Z,3.40
2023-07-18T17:04:36.296Z,3.20
2023-07-18T17:07:30.064Z,3.25
2023-07-18T17:10:17.288Z,3.08
2023-07-18T17:13:11.108Z,2.38
2023-07-18T17:15:58.373Z,2.90
2023-07-18T17:18:52.049Z,3.28
2023-07-18T17:21:46.040Z,2.75
2023-07-18T17:24:40.109Z,3.38
2023-07-18T17:27:27.794Z,3.97
2023-07-18T17:30:21.016Z,2.58
2023-07-18T17:33:14.993Z,3.42
2023-07-18T17:36:15.984Z,2.70
2023-07-18T17:39:03.248Z,2.92
2023-07-18T17:41:56.988Z,2.88
2023-07-18T17:44:44.238Z,2.90
2023-07-18T17:47:38.019Z,3.03
2023-07-18T17:50:25.583Z,1.90
2023-07-18T17:53:19.230Z,3.40
2023-07-18T17:56:06.592Z,3.28
2023-07-18T17:59:00.152Z,3.45
2023-07-18T18:01:47.360Z,2.90
2023-07-18T18:04:41.013Z,2.97
2023-07-18T18:07:28.187Z,2.80
2023-07-18T18:10:21.978Z,2.90
2023-07-18T18:13:16.061Z,2.58
2023-07-18T18:16:08.825Z,3.05
2023-07-18T18:19:03.210Z,2.58
2023-07-18T18:21:50.438Z,2.65
2023-07-18T18:24:44.193Z,2.60
2023-07-18T18:27:31.433Z,2.83
2023-07-18T18:30:25.158Z,2.55
2023-07-18T18:33:12.393Z,2.78
2023-07-18T18:36:12.201Z,2.67
2023-07-18T18:38:59.456Z,2.95
2023-07-18T18:41:53.287Z,2.47
2023-07-18T18:44:40.532Z,2.90
2023-07-18T18:47:34.109Z,2.90
2023-07-18T18:50:21.437Z,4.05
2023-07-18T18:53:15.229Z,2.75
2023-07-18T18:56:02.475Z,3.33
2023-07-18T18:58:56.130Z,3.42
2023-07-18T19:01:43.373Z,3.40
2023-07-18T19:04:38.466Z,3.38
2023-07-18T19:07:25.918Z,2.70
2023-07-18T19:10:20.284Z,3.35
2023-07-18T19:13:07.504Z,3.00
2023-07-18T19:16:01.253Z,3.20
2023-07-18T19:18:48.415Z,3.40
2023-07-18T19:21:42.261Z,3.72
2023-07-18T19:24:29.445Z,3.63
2023-07-18T19:27:23.186Z,2.70
2023-07-18T19:30:12.760Z,3.45
2023-07-18T19:33:08.459Z,3.33
2023-07-18T19:36:03.047Z,3.63
2023-07-18T19:38:57.084Z,3.10
2023-07-18T19:41:51.052Z,2.95
2023-07-18T19:44:38.802Z,3.33
2023-07-18T19:47:33.113Z,2.30
2023-07-18T19:50:27.128Z,3.42
2023-07-18T19:53:14.368Z,3.20
2023-07-18T19:56:08.103Z,3.45
2023-07-18T19:58:55.372Z,3.42
2023-07-18T20:01:49.255Z,3.20
2023-07-18T20:04:43.116Z,3.08
2023-07-18T20:07:37.209Z,3.75
2023-07-18T20:10:24.511Z,3.60
2023-07-18T20:13:18.159Z,3.40
2023-07-18T20:16:05.545Z,3.53
2023-07-18T20:19:02.423Z,2.60
2023-07-18T20:21:50.639Z,3.20
2023-07-18T20:24:44.220Z,3.25
2023-07-18T20:27:31.389Z,3.08
2023-07-18T20:30:25.097Z,3.60
2023-07-18T20:33:19.036Z,3.42
2023-07-18T20:36:19.136Z,4.00
2023-07-18T20:39:06.288Z,3.97
2023-07-18T20:42:00.300Z,3.78
2023-07-18T20:44:48.174Z,3.20
2023-07-18T20:47:42.135Z,4.13
2023-07-18T20:50:29.487Z,3.90
2023-07-18T20:53:23.359Z,4.45
2023-07-18T20:56:10.525Z,4.15
2023-07-18T20:59:04.194Z,4.43
2023-07-18T23:18:17.508Z,4.70
2023-07-18T23:20:45.945Z,4.53
2023-07-18T23:23:13.410Z,4.53
2023-07-18T23:25:47.172Z,4.45
2023-07-18T23:28:16.086Z,3.83
2023-07-18T23:30:50.255Z,4.28
2023-07-18T23:33:17.637Z,4.40
2023-07-18T23:35:44.863Z,3.88
2023-07-18T23:38:18.224Z,4.65
2023-07-18T23:40:45.532Z,4.95
2023-07-18T23:43:19.406Z,4.13
2023-07-18T23:45:46.842Z,5.25
2023-07-18T23:48:14.121Z,4.40
2023-07-18T23:50:48.199Z,4.10
2023-07-18T23:53:15.690Z,4.03
2023-07-18T23:55:58.334Z,4.40
2023-07-18T23:58:25.606Z,4.60
